Stoverdale, Pennsylvania
Current Conditions -  °F | °C
As of 5:56 AM on Friday 31 Oct 2014 (Local Time) from KMDT Reporting Station
Overcast Overcast  
Wind Chill: 47°   Ceiling: 6000
Heat Index: 47°   Visibility: 10mi
Dew Point: 37°   Wind: 0mph
Humidity: 68%   Direction: NA
Pressure: 30.01"   Gusts: NA
Location:  40.2988°N, 76.709°W
Report Text: KMDT 310956Z 00000KT 10SM OVC060 08/03 A3001 RMK AO2 SLP163 T00830028
Loading
Personal Weather Stations






























Interactive Weather Map
Tropical Storm Tracking
New forecast layout! Learn more

10-Day Weather Forecast

Advertisements
Track Severe Weather on mobile